sensor_id;sensor_type;location;lat;lon;timestamp;temperature;humidity
7588;DHT22;3835;48.850;8.938;2023-04-24T00:01:23;10.30;99.90
7588;DHT22;3835;48.850;8.938;2023-04-24T00:03:50;10.20;99.90
7588;DHT22;3835;48.850;8.938;2023-04-24T00:06:16;10.30;99.90
7588;DHT22;3835;48.850;8.938;2023-04-24T00:08:43;10.30;99.90
7588;DHT22;3835;48.850;8.938;2023-04-24T00:11:10;10.40;99.90
7588;DHT22;3835;48.850;8.938;2023-04-24T00:13:37;10.40;99.90
7588;DHT22;3835;48.850;8.938;2023-04-24T00:16:06;10.40;99.90
7588;DHT22;3835;48.850;8.938;2023-04-24T00:18:32;10.50;99.90
7588;DHT22;3835;48.850;8.938;2023-04-24T00:20:59;10.50;99.90
7588;DHT22;3835;48.850;8.938;2023-04-24T00:23:26;10.50;99.90
7588;DHT22;3835;48.850;8.938;2023-04-24T00:25:53;10.50;99.90
7588;DHT22;3835;48.850;8.938;2023-04-24T00:28:20;10.50;99.90
7588;DHT22;3835;48.850;8.938;2023-04-24T00:30:46;10.50;99.90
7588;DHT22;3835;48.850;8.938;2023-04-24T00:33:14;10.40;99.90
7588;DHT22;3835;48.850;8.938;2023-04-24T00:35:41;10.40;99.90
7588;DHT22;3835;48.850;8.938;2023-04-24T00:38:08;10.40;99.90
7588;DHT22;3835;48.850;8.938;2023-04-24T00:40:35;10.40;99.90
7588;DHT22;3835;48.850;8.938;2023-04-24T00:43:01;10.50;99.90
7588;DHT22;3835;48.850;8.938;2023-04-24T00:45:28;10.50;99.90
7588;DHT22;3835;48.850;8.938;2023-04-24T00:47:57;10.60;99.90
7588;DHT22;3835;48.850;8.938;2023-04-24T00:50:25;10.60;99.90
7588;DHT22;3835;48.850;8.938;2023-04-24T00:52:52;10.60;99.90
7588;DHT22;3835;48.850;8.938;2023-04-24T00:55:19;10.60;99.90
7588;DHT22;3835;48.850;8.938;2023-04-24T00:57:46;10.60;99.90
7588;DHT22;3835;48.850;8.938;2023-04-24T01:00:16;10.60;99.90
7588;DHT22;3835;48.850;8.938;2023-04-24T01:02:44;10.60;99.90
7588;DHT22;3835;48.850;8.938;2023-04-24T01:05:12;10.60;99.90
7588;DHT22;3835;48.850;8.938;2023-04-24T01:07:41;10.50;99.90
7588;DHT22;3835;48.850;8.938;2023-04-24T01:10:10;10.60;99.90
7588;DHT22;3835;48.850;8.938;2023-04-24T01:12:37;10.50;99.90
7588;DHT22;3835;48.850;8.938;2023-04-24T01:15:04;10.50;99.90
7588;DHT22;3835;48.850;8.938;2023-04-24T01:17:31;10.50;99.90
7588;DHT22;3835;48.850;8.938;2023-04-24T01:19:59;10.50;99.90
7588;DHT22;3835;48.850;8.938;2023-04-24T01:22:27;10.40;99.90
7588;DHT22;3835;48.850;8.938;2023-04-24T01:24:54;10.40;99.90
7588;DHT22;3835;48.850;8.938;2023-04-24T01:27:21;10.30;99.90
7588;DHT22;3835;48.850;8.938;2023-04-24T01:29:48;10.20;99.90
7588;DHT22;3835;48.850;8.938;2023-04-24T01:32:17;10.20;99.90
7588;DHT22;3835;48.850;8.938;2023-04-24T01:34:44;10.10;99.90
7588;DHT22;3835;48.850;8.938;2023-04-24T01:37:11;10.10;99.90
7588;DHT22;3835;48.850;8.938;2023-04-24T01:39:39;10.00;99.90
7588;DHT22;3835;48.850;8.938;2023-04-24T01:42:07;10.00;99.90
7588;DHT22;3835;48.850;8.938;2023-04-24T01:44:34;9.90;99.90
7588;DHT22;3835;48.850;8.938;2023-04-24T01:47:01;9.90;99.90
7588;DHT22;3835;48.850;8.938;2023-04-24T01:49:28;9.90;99.90
7588;DHT22;3835;48.850;8.938;2023-04-24T01:51:54;10.00;99.90
7588;DHT22;3835;48.850;8.938;2023-04-24T01:54:21;10.00;99.90
7588;DHT22;3835;48.850;8.938;2023-04-24T01:56:49;10.00;99.90
7588;DHT22;3835;48.850;8.938;2023-04-24T01:59:17;9.90;99.90
7588;DHT22;3835;48.850;8.938;2023-04-24T02:01:44;9.90;99.90
7588;DHT22;3835;48.850;8.938;2023-04-24T02:04:10;9.90;99.90
7588;DHT22;3835;48.850;8.938;2023-04-24T02:06:37;10.00;99.90
7588;DHT22;3835;48.850;8.938;2023-04-24T02:09:04;10.00;99.90
7588;DHT22;3835;48.850;8.938;2023-04-24T02:11:31;10.00;99.90
7588;DHT22;3835;48.850;8.938;2023-04-24T02:13:59;10.00;99.90
7588;DHT22;3835;48.850;8.938;2023-04-24T02:16:27;10.10;99.90
7588;DHT22;3835;48.850;8.938;2023-04-24T02:18:55;10.10;99.90
7588;DHT22;3835;48.850;8.938;2023-04-24T02:21:22;10.20;99.90
7588;DHT22;3835;48.850;8.938;2023-04-24T02:23:49;10.20;99.90
7588;DHT22;3835;48.850;8.938;2023-04-24T02:26:15;10.30;99.90
7588;DHT22;3835;48.850;8.938;2023-04-24T02:28:43;10.20;99.90
7588;DHT22;3835;48.850;8.938;2023-04-24T02:31:11;10.10;99.90
7588;DHT22;3835;48.850;8.938;2023-04-24T02:33:38;10.10;99.90
7588;DHT22;3835;48.850;8.938;2023-04-24T02:36:05;10.00;99.90
7588;DHT22;3835;48.850;8.938;2023-04-24T02:38:32;9.90;99.90
7588;DHT22;3835;48.850;8.938;2023-04-24T02:40:58;9.90;99.90
7588;DHT22;3835;48.850;8.938;2023-04-24T02:43:26;9.80;99.90
7588;DHT22;3835;48.850;8.938;2023-04-24T02:45:53;9.80;99.90
7588;DHT22;3835;48.850;8.938;2023-04-24T02:48:21;9.70;99.90
7588;DHT22;3835;48.850;8.938;2023-04-24T02:50:47;9.60;99.90
7588;DHT22;3835;48.850;8.938;2023-04-24T02:53:14;9.60;99.90
7588;DHT22;3835;48.850;8.938;2023-04-24T02:55:41;9.50;99.90
7588;DHT22;3835;48.850;8.938;2023-04-24T02:58:08;9.50;99.90
7588;DHT22;3835;48.850;8.938;2023-04-24T03:00:36;9.40;99.90
7588;DHT22;3835;48.850;8.938;2023-04-24T03:03:02;9.30;99.90
7588;DHT22;3835;48.850;8.938;2023-04-24T03:05:31;9.20;99.90
7588;DHT22;3835;48.850;8.938;2023-04-24T03:07:58;9.20;99.90
7588;DHT22;3835;48.850;8.938;2023-04-24T03:10:24;9.20;99.90
7588;DHT22;3835;48.850;8.938;2023-04-24T03:12:51;9.20;99.90
7588;DHT22;3835;48.850;8.938;2023-04-24T03:15:18;9.20;99.90
7588;DHT22;3835;48.850;8.938;2023-04-24T03:17:45;9.20;99.90
7588;DHT22;3835;48.850;8.938;2023-04-24T03:20:12;9.10;99.90
7588;DHT22;3835;48.850;8.938;2023-04-24T03:22:40;9.10;99.90
7588;DHT22;3835;48.850;8.938;2023-04-24T03:25:07;9.10;99.90
7588;DHT22;3835;48.850;8.938;2023-04-24T03:27:34;9.00;99.90
7588;DHT22;3835;48.850;8.938;2023-04-24T03:30:01;9.00;99.90
7588;DHT22;3835;48.850;8.938;2023-04-24T03:32:28;9.00;99.90
7588;DHT22;3835;48.850;8.938;2023-04-24T03:34:55;9.00;99.90
7588;DHT22;3835;48.850;8.938;2023-04-24T03:37:22;9.00;99.90
7588;DHT22;3835;48.850;8.938;2023-04-24T03:39:50;9.10;99.90
7588;DHT22;3835;48.850;8.938;2023-04-24T03:42:17;9.20;99.90
7588;DHT22;3835;48.850;8.938;2023-04-24T03:44:44;9.20;99.90
7588;DHT22;3835;48.850;8.938;2023-04-24T03:47:11;9.20;99.90
7588;DHT22;3835;48.850;8.938;2023-04-24T03:49:37;9.10;99.90
7588;DHT22;3835;48.850;8.938;2023-04-24T03:52:04;9.10;99.90
7588;DHT22;3835;48.850;8.938;2023-04-24T03:54:31;9.10;99.90
7588;DHT22;3835;48.850;8.938;2023-04-24T03:56:59;9.10;99.90
7588;DHT22;3835;48.850;8.938;2023-04-24T03:59:26;9.10;99.90
7588;DHT22;3835;48.850;8.938;2023-04-24T04:01:53;9.10;99.90
7588;DHT22;3835;48.850;8.938;2023-04-24T04:04:20;9.20;99.90
7588;DHT22;3835;48.850;8.938;2023-04-24T04:06:47;9.10;99.90
7588;DHT22;3835;48.850;8.938;2023-04-24T04:09:14;9.10;99.90
7588;DHT22;3835;48.850;8.938;2023-04-24T04:11:41;9.00;99.90
7588;DHT22;3835;48.850;8.938;2023-04-24T04:14:09;9.00;99.90
7588;DHT22;3835;48.850;8.938;2023-04-24T04:16:36;8.90;99.90
7588;DHT22;3835;48.850;8.938;2023-04-24T04:19:03;8.90;99.90
7588;DHT22;3835;48.850;8.938;2023-04-24T04:21:29;8.80;99.90
7588;DHT22;3835;48.850;8.938;2023-04-24T04:23:57;8.70;99.90
7588;DHT22;3835;48.850;8.938;2023-04-24T04:26:24;8.70;99.90
7588;DHT22;3835;48.850;8.938;2023-04-24T04:28:51;8.70;99.90
7588;DHT22;3835;48.850;8.938;2023-04-24T04:31:20;8.60;99.90
7588;DHT22;3835;48.850;8.938;2023-04-24T04:33:47;8.60;99.90
7588;DHT22;3835;48.850;8.938;2023-04-24T04:36:14;8.60;99.90
7588;DHT22;3835;48.850;8.938;2023-04-24T04:38:42;8.60;99.90
7588;DHT22;3835;48.850;8.938;2023-04-24T04:41:10;8.50;99.90
7588;DHT22;3835;48.850;8.938;2023-04-24T04:43:37;8.50;99.90
7588;DHT22;3835;48.850;8.938;2023-04-24T04:46:05;8.50;99.90
7588;DHT22;3835;48.850;8.938;2023-04-24T04:48:34;8.50;99.90
7588;DHT22;3835;48.850;8.938;2023-04-24T04:51:01;8.50;99.90
7588;DHT22;3835;48.850;8.938;2023-04-24T04:53:28;8.50;99.90
7588;DHT22;3835;48.850;8.938;2023-04-24T04:55:55;8.50;99.90
7588;DHT22;3835;48.850;8.938;2023-04-24T04:58:22;8.40;99.90
7588;DHT22;3835;48.850;8.938;2023-04-24T05:00:48;8.30;99.90
7588;DHT22;3835;48.850;8.938;2023-04-24T05:03:15;8.20;99.90
7588;DHT22;3835;48.850;8.938;2023-04-24T05:05:43;8.20;99.90
7588;DHT22;3835;48.850;8.938;2023-04-24T05:08:10;8.30;99.90
7588;DHT22;3835;48.850;8.938;2023-04-24T05:10:37;8.30;99.90
7588;DHT22;3835;48.850;8.938;2023-04-24T05:13:03;8.40;99.90
7588;DHT22;3835;48.850;8.938;2023-04-24T05:15:30;8.40;99.90
7588;DHT22;3835;48.850;8.938;2023-04-24T05:17:57;8.60;99.90
7588;DHT22;3835;48.850;8.938;2023-04-24T05:20:24;8.60;99.90
7588;DHT22;3835;48.850;8.938;2023-04-24T05:22:52;8.70;99.90
7588;DHT22;3835;48.850;8.938;2023-04-24T05:25:19;8.80;99.90
7588;DHT22;3835;48.850;8.938;2023-04-24T05:27:46;8.70;99.90
7588;DHT22;3835;48.850;8.938;2023-04-24T05:30:14;8.70;99.90
7588;DHT22;3835;48.850;8.938;2023-04-24T05:32:40;8.70;99.90
7588;DHT22;3835;48.850;8.938;2023-04-24T05:35:08;8.90;99.90
7588;DHT22;3835;48.850;8.938;2023-04-24T05:37:34;9.00;99.90
7588;DHT22;3835;48.850;8.938;2023-04-24T05:40:03;9.00;99.90
7588;DHT22;3835;48.850;8.938;2023-04-24T05:42:31;9.10;99.90
7588;DHT22;3835;48.850;8.938;2023-04-24T05:44:57;9.10;99.90
7588;DHT22;3835;48.850;8.938;2023-04-24T05:47:24;9.30;99.90
7588;DHT22;3835;48.850;8.938;2023-04-24T05:49:53;9.50;99.90
7588;DHT22;3835;48.850;8.938;2023-04-24T05:52:20;9.50;99.90
7588;DHT22;3835;48.850;8.938;2023-04-24T05:54:47;9.30;99.90
7588;DHT22;3835;48.850;8.938;2023-04-24T05:57:15;9.30;99.90
7588;DHT22;3835;48.850;8.938;2023-04-24T05:59:42;9.40;99.90
7588;DHT22;3835;48.850;8.938;2023-04-24T06:02:09;9.70;99.90
7588;DHT22;3835;48.850;8.938;2023-04-24T06:04:35;9.90;99.90
7588;DHT22;3835;48.850;8.938;2023-04-24T06:07:02;10.10;99.90
7588;DHT22;3835;48.850;8.938;2023-04-24T06:09:29;10.20;99.90
7588;DHT22;3835;48.850;8.938;2023-04-24T06:11:56;10.40;99.90
7588;DHT22;3835;48.850;8.938;2023-04-24T06:14:25;10.70;99.90
7588;DHT22;3835;48.850;8.938;2023-04-24T06:16:52;10.80;99.90
7588;DHT22;3835;48.850;8.938;2023-04-24T06:19:18;11.10;99.90
7588;DHT22;3835;48.850;8.938;2023-04-24T06:21:45;11.30;99.90
7588;DHT22;3835;48.850;8.938;2023-04-24T06:24:14;11.50;99.90
7588;DHT22;3835;48.850;8.938;2023-04-24T06:26:41;11.20;99.90
7588;DHT22;3835;48.850;8.938;2023-04-24T06:29:08;10.90;99.90
7588;DHT22;3835;48.850;8.938;2023-04-24T06:31:36;11.30;99.90
7588;DHT22;3835;48.850;8.938;2023-04-24T06:34:03;11.30;99.90
7588;DHT22;3835;48.850;8.938;2023-04-24T06:36:30;11.40;99.90
7588;DHT22;3835;48.850;8.938;2023-04-24T06:38:59;11.70;99.90
7588;DHT22;3835;48.850;8.938;2023-04-24T06:41:26;12.30;99.90
7588;DHT22;3835;48.850;8.938;2023-04-24T06:43:53;12.50;99.90
7588;DHT22;3835;48.850;8.938;2023-04-24T06:46:20;12.10;99.90
7588;DHT22;3835;48.850;8.938;2023-04-24T06:48:49;12.10;99.90
7588;DHT22;3835;48.850;8.938;2023-04-24T06:51:16;12.10;99.90
7588;DHT22;3835;48.850;8.938;2023-04-24T06:53:44;11.90;99.90
7588;DHT22;3835;48.850;8.938;2023-04-24T06:56:10;12.10;99.90
7588;DHT22;3835;48.850;8.938;2023-04-24T06:58:37;12.20;99.90
7588;DHT22;3835;48.850;8.938;2023-04-24T07:01:04;12.30;99.90
7588;DHT22;3835;48.850;8.938;2023-04-24T07:03:31;11.90;99.90
7588;DHT22;3835;48.850;8.938;2023-04-24T07:05:59;11.60;99.90
7588;DHT22;3835;48.850;8.938;2023-04-24T07:08:26;11.80;99.90
7588;DHT22;3835;48.850;8.938;2023-04-24T07:10:53;11.40;99.90
7588;DHT22;3835;48.850;8.938;2023-04-24T07:13:22;11.10;99.90
7588;DHT22;3835;48.850;8.938;2023-04-24T07:15:49;11.10;99.90
7588;DHT22;3835;48.850;8.938;2023-04-24T07:18:16;11.50;99.90
7588;DHT22;3835;48.850;8.938;2023-04-24T07:20:43;11.60;99.90
7588;DHT22;3835;48.850;8.938;2023-04-24T07:23:11;11.80;99.90
7588;DHT22;3835;48.850;8.938;2023-04-24T07:25:38;11.40;99.90
7588;DHT22;3835;48.850;8.938;2023-04-24T07:28:06;11.20;99.90
7588;DHT22;3835;48.850;8.938;2023-04-24T07:30:33;11.30;99.90
7588;DHT22;3835;48.850;8.938;2023-04-24T07:32:59;11.30;99.90
7588;DHT22;3835;48.850;8.938;2023-04-24T07:35:26;11.10;99.90
7588;DHT22;3835;48.850;8.938;2023-04-24T07:37:53;11.40;99.90
7588;DHT22;3835;48.850;8.938;2023-04-24T07:40:22;11.10;99.90
7588;DHT22;3835;48.850;8.938;2023-04-24T07:42:49;11.00;99.90
7588;DHT22;3835;48.850;8.938;2023-04-24T07:45:16;10.60;99.90
7588;DHT22;3835;48.850;8.938;2023-04-24T07:47:43;10.70;99.90
7588;DHT22;3835;48.850;8.938;2023-04-24T07:50:11;10.70;99.90
7588;DHT22;3835;48.850;8.938;2023-04-24T07:52:37;10.80;99.90
7588;DHT22;3835;48.850;8.938;2023-04-24T07:55:05;10.70;99.90
7588;DHT22;3835;48.850;8.938;2023-04-24T07:57:33;10.60;99.90
7588;DHT22;3835;48.850;8.938;2023-04-24T08:00:02;10.30;99.90
7588;DHT22;3835;48.850;8.938;2023-04-24T08:02:29;10.20;99.90
7588;DHT22;3835;48.850;8.938;2023-04-24T08:04:55;10.20;99.90
7588;DHT22;3835;48.850;8.938;2023-04-24T08:07:23;10.20;99.90
7588;DHT22;3835;48.850;8.938;2023-04-24T08:09:50;9.90;99.90
7588;DHT22;3835;48.850;8.938;2023-04-24T08:12:17;10.00;99.90
7588;DHT22;3835;48.850;8.938;2023-04-24T08:14:45;10.40;99.90
7588;DHT22;3835;48.850;8.938;2023-04-24T08:17:11;10.60;99.90
7588;DHT22;3835;48.850;8.938;2023-04-24T08:19:40;10.80;99.90
7588;DHT22;3835;48.850;8.938;2023-04-24T08:22:13;10.90;99.90
7588;DHT22;3835;48.850;8.938;2023-04-24T08:24:39;11.20;99.90
7588;DHT22;3835;48.850;8.938;2023-04-24T08:27:06;11.40;99.90
7588;DHT22;3835;48.850;8.938;2023-04-24T08:29:33;11.30;99.90
7588;DHT22;3835;48.850;8.938;2023-04-24T08:32:01;11.20;99.90
7588;DHT22;3835;48.850;8.938;2023-04-24T08:34:28;11.10;99.90
7588;DHT22;3835;48.850;8.938;2023-04-24T08:36:55;11.10;99.90
7588;DHT22;3835;48.850;8.938;2023-04-24T08:39:21;11.50;99.90
7588;DHT22;3835;48.850;8.938;2023-04-24T08:41:48;11.70;99.90
7588;DHT22;3835;48.850;8.938;2023-04-24T08:44:16;11.80;99.90
7588;DHT22;3835;48.850;8.938;2023-04-24T08:46:43;12.00;99.90
7588;DHT22;3835;48.850;8.938;2023-04-24T08:49:13;12.00;99.90
7588;DHT22;3835;48.850;8.938;2023-04-24T08:51:41;12.10;99.90
7588;DHT22;3835;48.850;8.938;2023-04-24T08:54:08;12.00;99.90
7588;DHT22;3835;48.850;8.938;2023-04-24T08:56:36;12.90;99.90
7588;DHT22;3835;48.850;8.938;2023-04-24T08:59:05;13.50;99.90
7588;DHT22;3835;48.850;8.938;2023-04-24T09:01:32;13.00;99.90
7588;DHT22;3835;48.850;8.938;2023-04-24T09:04:01;12.60;99.90
7588;DHT22;3835;48.850;8.938;2023-04-24T09:06:30;12.10;99.90
7588;DHT22;3835;48.850;8.938;2023-04-24T09:09:00;12.00;99.90
7588;DHT22;3835;48.850;8.938;2023-04-24T09:11:30;12.00;99.90
7588;DHT22;3835;48.850;8.938;2023-04-24T09:13:57;12.40;99.90
7588;DHT22;3835;48.850;8.938;2023-04-24T09:16:25;12.50;99.90
7588;DHT22;3835;48.850;8.938;2023-04-24T09:18:53;13.00;99.90
7588;DHT22;3835;48.850;8.938;2023-04-24T09:21:21;13.70;99.90
7588;DHT22;3835;48.850;8.938;2023-04-24T09:23:57;14.10;99.90
7588;DHT22;3835;48.850;8.938;2023-04-24T09:26:24;14.50;99.90
7588;DHT22;3835;48.850;8.938;2023-04-24T09:28:53;14.70;99.90
7588;DHT22;3835;48.850;8.938;2023-04-24T09:31:20;14.30;99.90
7588;DHT22;3835;48.850;8.938;2023-04-24T09:33:54;14.00;99.90
7588;DHT22;3835;48.850;8.938;2023-04-24T09:36:27;13.80;99.90
7588;DHT22;3835;48.850;8.938;2023-04-24T09:38:57;13.60;99.90
7588;DHT22;3835;48.850;8.938;2023-04-24T09:41:25;13.20;99.90
7588;DHT22;3835;48.850;8.938;2023-04-24T09:43:53;13.10;99.90
7588;DHT22;3835;48.850;8.938;2023-04-24T09:46:21;13.10;99.90
7588;DHT22;3835;48.850;8.938;2023-04-24T09:48:48;13.40;99.90
7588;DHT22;3835;48.850;8.938;2023-04-24T09:51:14;13.60;99.90
7588;DHT22;3835;48.850;8.938;2023-04-24T09:53:46;13.60;99.90
7588;DHT22;3835;48.850;8.938;2023-04-24T09:56:14;14.00;99.90
7588;DHT22;3835;48.850;8.938;2023-04-24T09:58:40;14.40;99.90
7588;DHT22;3835;48.850;8.938;2023-04-24T10:01:07;13.80;99.90
7588;DHT22;3835;48.850;8.938;2023-04-24T10:03:35;14.00;99.90
7588;DHT22;3835;48.850;8.938;2023-04-24T10:06:03;14.50;99.90
7588;DHT22;3835;48.850;8.938;2023-04-24T10:08:35;14.70;99.90
7588;DHT22;3835;48.850;8.938;2023-04-24T10:11:03;14.60;99.90
7588;DHT22;3835;48.850;8.938;2023-04-24T10:13:32;14.40;99.90
7588;DHT22;3835;48.850;8.938;2023-04-24T10:16:00;13.80;99.90
7588;DHT22;3835;48.850;8.938;2023-04-24T10:18:27;13.20;99.90
7588;DHT22;3835;48.850;8.938;2023-04-24T10:20:54;12.30;99.90
7588;DHT22;3835;48.850;8.938;2023-04-24T10:23:21;11.90;99.90
7588;DHT22;3835;48.850;8.938;2023-04-24T10:25:49;11.40;99.90
7588;DHT22;3835;48.850;8.938;2023-04-24T10:28:18;11.40;99.90
7588;DHT22;3835;48.850;8.938;2023-04-24T10:30:47;11.70;99.90
7588;DHT22;3835;48.850;8.938;2023-04-24T10:33:16;12.00;99.90
7588;DHT22;3835;48.850;8.938;2023-04-24T10:35:45;12.50;99.90
7588;DHT22;3835;48.850;8.938;2023-04-24T10:38:16;12.20;99.90
7588;DHT22;3835;48.850;8.938;2023-04-24T10:40:44;12.10;99.90
7588;DHT22;3835;48.850;8.938;2023-04-24T10:43:16;12.00;99.90
7588;DHT22;3835;48.850;8.938;2023-04-24T10:46:00;11.80;99.90
7588;DHT22;3835;48.850;8.938;2023-04-24T10:48:27;11.50;99.90
7588;DHT22;3835;48.850;8.938;2023-04-24T10:50:54;11.10;99.90
7588;DHT22;3835;48.850;8.938;2023-04-24T10:53:22;10.90;99.90
7588;DHT22;3835;48.850;8.938;2023-04-24T10:55:51;11.10;99.90
7588;DHT22;3835;48.850;8.938;2023-04-24T10:58:23;11.40;99.90
7588;DHT22;3835;48.850;8.938;2023-04-24T11:00:57;12.00;99.90
7588;DHT22;3835;48.850;8.938;2023-04-24T11:03:26;12.10;99.90
7588;DHT22;3835;48.850;8.938;2023-04-24T11:05:56;12.20;99.90
7588;DHT22;3835;48.850;8.938;2023-04-24T11:08:29;12.00;99.90
7588;DHT22;3835;48.850;8.938;2023-04-24T11:10:59;12.00;99.90
7588;DHT22;3835;48.850;8.938;2023-04-24T11:13:27;12.60;99.90
7588;DHT22;3835;48.850;8.938;2023-04-24T11:16:14;13.20;99.90
7588;DHT22;3835;48.850;8.938;2023-04-24T11:18:42;13.80;99.90
7588;DHT22;3835;48.850;8.938;2023-04-24T11:21:12;14.40;99.90
7588;DHT22;3835;48.850;8.938;2023-04-24T11:23:39;14.60;99.90
7588;DHT22;3835;48.850;8.938;2023-04-24T11:26:12;14.20;99.90
7588;DHT22;3835;48.850;8.938;2023-04-24T11:28:50;13.40;99.90
7588;DHT22;3835;48.850;8.938;2023-04-24T11:31:38;12.60;99.90
7588;DHT22;3835;48.850;8.938;2023-04-24T11:34:08;12.60;99.90
7588;DHT22;3835;48.850;8.938;2023-04-24T11:36:36;12.70;99.90
7588;DHT22;3835;48.850;8.938;2023-04-24T11:39:03;12.90;99.90
7588;DHT22;3835;48.850;8.938;2023-04-24T11:41:31;13.40;99.90
7588;DHT22;3835;48.850;8.938;2023-04-24T11:43:57;13.80;99.90
7588;DHT22;3835;48.850;8.938;2023-04-24T11:46:27;14.00;99.90
7588;DHT22;3835;48.850;8.938;2023-04-24T11:48:56;14.10;99.90
7588;DHT22;3835;48.850;8.938;2023-04-24T11:51:23;14.10;99.90
7588;DHT22;3835;48.850;8.938;2023-04-24T11:53:50;14.00;99.90
7588;DHT22;3835;48.850;8.938;2023-04-24T11:56:18;13.50;99.90
7588;DHT22;3835;48.850;8.938;2023-04-24T11:58:45;12.80;99.90
7588;DHT22;3835;48.850;8.938;2023-04-24T12:01:13;12.70;99.90
7588;DHT22;3835;48.850;8.938;2023-04-24T12:03:40;12.40;99.90
7588;DHT22;3835;48.850;8.938;2023-04-24T12:06:11;12.10;99.90
7588;DHT22;3835;48.850;8.938;2023-04-24T12:08:39;12.00;99.90
7588;DHT22;3835;48.850;8.938;2023-04-24T12:11:07;12.20;99.90
7588;DHT22;3835;48.850;8.938;2023-04-24T12:13:34;12.70;99.90
7588;DHT22;3835;48.850;8.938;2023-04-24T12:16:03;13.00;99.90
7588;DHT22;3835;48.850;8.938;2023-04-24T12:18:30;12.70;99.90
7588;DHT22;3835;48.850;8.938;2023-04-24T12:21:17;12.50;99.90
7588;DHT22;3835;48.850;8.938;2023-04-24T12:23:45;12.50;99.90
7588;DHT22;3835;48.850;8.938;2023-04-24T12:26:12;12.30;99.90
7588;DHT22;3835;48.850;8.938;2023-04-24T12:28:39;12.20;99.90
7588;DHT22;3835;48.850;8.938;2023-04-24T12:31:06;12.10;99.90
7588;DHT22;3835;48.850;8.938;2023-04-24T12:33:34;12.50;99.90
7588;DHT22;3835;48.850;8.938;2023-04-24T12:36:02;12.20;99.90
7588;DHT22;3835;48.850;8.938;2023-04-24T12:38:30;11.80;99.90
7588;DHT22;3835;48.850;8.938;2023-04-24T12:41:06;11.70;99.90
7588;DHT22;3835;48.850;8.938;2023-04-24T12:43:33;11.20;99.90
7588;DHT22;3835;48.850;8.938;2023-04-24T12:46:00;11.60;99.90
7588;DHT22;3835;48.850;8.938;2023-04-24T12:48:28;11.90;99.90
7588;DHT22;3835;48.850;8.938;2023-04-24T12:50:55;12.40;99.90
7588;DHT22;3835;48.850;8.938;2023-04-24T12:53:23;12.50;99.90
7588;DHT22;3835;48.850;8.938;2023-04-24T12:55:53;12.60;99.90
7588;DHT22;3835;48.850;8.938;2023-04-24T12:58:20;12.30;99.90
7588;DHT22;3835;48.850;8.938;2023-04-24T13:00:47;12.00;99.90
7588;DHT22;3835;48.850;8.938;2023-04-24T13:03:14;11.60;99.90
7588;DHT22;3835;48.850;8.938;2023-04-24T13:05:42;11.70;99.90
7588;DHT22;3835;48.850;8.938;2023-04-24T13:08:09;11.80;99.90
7588;DHT22;3835;48.850;8.938;2023-04-24T13:10:36;11.90;99.90
7588;DHT22;3835;48.850;8.938;2023-04-24T13:13:04;11.80;99.90
7588;DHT22;3835;48.850;8.938;2023-04-24T13:15:31;11.60;99.90
7588;DHT22;3835;48.850;8.938;2023-04-24T13:17:57;11.50;99.90
7588;DHT22;3835;48.850;8.938;2023-04-24T13:20:24;11.40;99.90
7588;DHT22;3835;48.850;8.938;2023-04-24T13:22:51;11.50;99.90
7588;DHT22;3835;48.850;8.938;2023-04-24T13:25:18;11.90;99.90
7588;DHT22;3835;48.850;8.938;2023-04-24T13:27:45;12.60;99.90
7588;DHT22;3835;48.850;8.938;2023-04-24T13:30:14;12.50;99.90
7588;DHT22;3835;48.850;8.938;2023-04-24T13:32:40;12.30;99.90
7588;DHT22;3835;48.850;8.938;2023-04-24T13:35:08;12.50;99.90
7588;DHT22;3835;48.850;8.938;2023-04-24T13:37:35;12.50;99.90
7588;DHT22;3835;48.850;8.938;2023-04-24T13:40:02;12.30;99.90
7588;DHT22;3835;48.850;8.938;2023-04-24T13:42:31;12.30;99.90
7588;DHT22;3835;48.850;8.938;2023-04-24T13:44:58;12.60;99.90
7588;DHT22;3835;48.850;8.938;2023-04-24T13:47:26;12.90;99.90
7588;DHT22;3835;48.850;8.938;2023-04-24T13:49:53;12.80;99.90
7588;DHT22;3835;48.850;8.938;2023-04-24T13:52:20;12.90;99.90
7588;DHT22;3835;48.850;8.938;2023-04-24T13:54:47;12.80;99.90
7588;DHT22;3835;48.850;8.938;2023-04-24T13:57:14;12.40;99.90
7588;DHT22;3835;48.850;8.938;2023-04-24T13:59:41;12.60;99.90
7588;DHT22;3835;48.850;8.938;2023-04-24T14:02:07;13.00;99.90
7588;DHT22;3835;48.850;8.938;2023-04-24T14:04:35;13.50;99.90
7588;DHT22;3835;48.850;8.938;2023-04-24T14:07:02;13.80;99.90
7588;DHT22;3835;48.850;8.938;2023-04-24T14:09:29;14.30;99.90
7588;DHT22;3835;48.850;8.938;2023-04-24T14:11:56;14.30;99.90
7588;DHT22;3835;48.850;8.938;2023-04-24T14:14:23;13.60;99.90
7588;DHT22;3835;48.850;8.938;2023-04-24T14:16:49;13.30;99.90
7588;DHT22;3835;48.850;8.938;2023-04-24T14:19:16;13.00;99.90
7588;DHT22;3835;48.850;8.938;2023-04-24T14:21:44;12.20;99.90
7588;DHT22;3835;48.850;8.938;2023-04-24T14:24:11;12.30;99.90
7588;DHT22;3835;48.850;8.938;2023-04-24T14:26:38;12.40;99.90
7588;DHT22;3835;48.850;8.938;2023-04-24T14:29:04;12.20;99.90
7588;DHT22;3835;48.850;8.938;2023-04-24T14:31:31;12.30;99.90
7588;DHT22;3835;48.850;8.938;2023-04-24T14:33:58;12.30;99.90
7588;DHT22;3835;48.850;8.938;2023-04-24T14:36:25;12.30;99.90
7588;DHT22;3835;48.850;8.938;2023-04-24T14:38:53;12.30;99.90
7588;DHT22;3835;48.850;8.938;2023-04-24T14:41:20;12.50;99.90
7588;DHT22;3835;48.850;8.938;2023-04-24T14:43:46;12.50;99.90
7588;DHT22;3835;48.850;8.938;2023-04-24T14:46:13;12.50;99.90
7588;DHT22;3835;48.850;8.938;2023-04-24T14:48:40;12.50;99.90
7588;DHT22;3835;48.850;8.938;2023-04-24T14:51:07;12.70;99.90
7588;DHT22;3835;48.850;8.938;2023-04-24T14:53:34;13.10;99.90
7588;DHT22;3835;48.850;8.938;2023-04-24T14:56:02;13.20;99.90
7588;DHT22;3835;48.850;8.938;2023-04-24T14:58:29;12.60;99.90
7588;DHT22;3835;48.850;8.938;2023-04-24T15:00:56;12.50;99.90
7588;DHT22;3835;48.850;8.938;2023-04-24T15:03:22;12.30;99.90
7588;DHT22;3835;48.850;8.938;2023-04-24T15:05:50;12.20;99.90
7588;DHT22;3835;48.850;8.938;2023-04-24T15:08:17;12.00;99.90
7588;DHT22;3835;48.850;8.938;2023-04-24T15:10:44;11.40;99.90
7588;DHT22;3835;48.850;8.938;2023-04-24T15:13:12;11.10;99.90
7588;DHT22;3835;48.850;8.938;2023-04-24T15:15:39;11.20;99.90
7588;DHT22;3835;48.850;8.938;2023-04-24T15:18:07;11.30;99.90
7588;DHT22;3835;48.850;8.938;2023-04-24T15:20:36;11.50;99.90
7588;DHT22;3835;48.850;8.938;2023-04-24T15:23:04;11.70;99.90
7588;DHT22;3835;48.850;8.938;2023-04-24T15:25:31;11.70;99.90
7588;DHT22;3835;48.850;8.938;2023-04-24T15:27:58;11.90;99.90
7588;DHT22;3835;48.850;8.938;2023-04-24T15:30:27;11.90;99.90
7588;DHT22;3835;48.850;8.938;2023-04-24T15:32:53;11.80;99.90
7588;DHT22;3835;48.850;8.938;2023-04-24T15:35:20;11.70;99.90
7588;DHT22;3835;48.850;8.938;2023-04-24T15:37:47;11.70;99.90
7588;DHT22;3835;48.850;8.938;2023-04-24T15:40:14;11.80;99.90
7588;DHT22;3835;48.850;8.938;2023-04-24T15:42:42;11.80;99.90
7588;DHT22;3835;48.850;8.938;2023-04-24T15:45:10;11.80;99.90
7588;DHT22;3835;48.850;8.938;2023-04-24T15:47:38;11.80;99.90
7588;DHT22;3835;48.850;8.938;2023-04-24T15:50:06;11.90;99.90
7588;DHT22;3835;48.850;8.938;2023-04-24T15:52:35;11.80;99.90
7588;DHT22;3835;48.850;8.938;2023-04-24T15:55:03;11.80;99.90
7588;DHT22;3835;48.850;8.938;2023-04-24T15:57:30;11.90;99.90
7588;DHT22;3835;48.850;8.938;2023-04-24T15:59:57;11.90;99.90
7588;DHT22;3835;48.850;8.938;2023-04-24T16:02:24;11.90;99.90
7588;DHT22;3835;48.850;8.938;2023-04-24T16:04:52;11.90;99.90
7588;DHT22;3835;48.850;8.938;2023-04-24T16:07:19;12.00;99.90